createdAt,value
2019-03-30T00:02:28.143Z,21.53
2019-03-30T00:05:02.463Z,32.37
2019-03-30T00:07:37.004Z,31.30
2019-03-30T00:10:11.473Z,27.13
2019-03-30T00:12:45.712Z,30.33
2019-03-30T00:15:20.055Z,15.50
2019-03-30T00:17:54.298Z,18.97
2019-03-30T00:20:29.250Z,17.60
2019-03-30T00:23:03.646Z,28.43
2019-03-30T00:25:38.338Z,29.20
2019-03-30T00:28:12.580Z,29.47
2019-03-30T00:30:46.884Z,23.97
2019-03-30T00:33:21.123Z,22.20
2019-03-30T00:35:55.410Z,22.80
2019-03-30T00:38:29.648Z,36.37
2019-03-30T00:41:04.529Z,30.90
2019-03-30T00:43:38.775Z,26.93
2019-03-30T00:46:13.145Z,28.30
2019-03-30T00:48:47.394Z,26.37
2019-03-30T00:51:21.654Z,26.97
2019-03-30T00:53:55.886Z,28.67
2019-03-30T00:56:32.012Z,30.50
2019-03-30T00:59:06.241Z,28.03
2019-03-30T01:01:40.960Z,30.10
2019-03-30T01:04:15.195Z,36.33
2019-03-30T01:06:49.456Z,27.00
2019-03-30T01:09:23.701Z,34.00
2019-03-30T01:11:57.986Z,29.97
2019-03-30T01:14:32.580Z,35.67
2019-03-30T01:17:06.945Z,32.40
2019-03-30T01:19:41.256Z,33.97
2019-03-30T01:22:15.557Z,35.60
2019-03-30T01:24:50.575Z,32.97
2019-03-30T01:27:25.238Z,33.53
2019-03-30T01:29:59.822Z,31.67
2019-03-30T01:32:35.124Z,33.30
2019-03-30T01:35:10.001Z,34.50
2019-03-30T01:37:44.233Z,33.70
2019-03-30T01:40:18.561Z,28.47
2019-03-30T01:42:52.860Z,24.83
2019-03-30T01:45:27.102Z,23.33
2019-03-30T01:48:01.395Z,25.60
2019-03-30T01:50:35.693Z,27.90
2019-03-30T01:53:10.064Z,30.00
2019-03-30T01:55:44.305Z,37.83
2019-03-30T01:58:18.908Z,46.70
2019-03-30T02:00:53.152Z,44.87
2019-03-30T02:03:27.482Z,52.60
2019-03-30T02:06:01.993Z,69.37
2019-03-30T02:08:36.640Z,58.30
2019-03-30T02:11:11.234Z,67.40
2019-03-30T02:13:45.507Z,72.23
2019-03-30T02:16:19.755Z,86.27
2019-03-30T02:18:54.110Z,80.57
2019-03-30T02:21:28.446Z,72.10
2019-03-30T02:24:02.877Z,70.13
2019-03-30T02:26:37.140Z,62.23
2019-03-30T02:29:11.437Z,72.73
2019-03-30T02:31:45.685Z,71.13
2019-03-30T02:34:19.961Z,75.03
2019-03-30T02:36:54.541Z,82.70
2019-03-30T02:39:29.103Z,80.73
2019-03-30T02:42:03.347Z,79.17
2019-03-30T02:44:37.625Z,72.60
2019-03-30T02:47:11.870Z,71.10
2019-03-30T02:49:46.460Z,63.77
2019-03-30T02:52:21.044Z,67.93
2019-03-30T02:54:55.682Z,60.90
2019-03-30T02:57:29.932Z,63.30
2019-03-30T03:00:06.533Z,56.93
2019-03-30T03:02:40.784Z,49.73
2019-03-30T03:05:15.706Z,53.47
2019-03-30T03:07:50.097Z,50.33
2019-03-30T03:10:24.530Z,47.20
2019-03-30T03:12:58.767Z,59.33
2019-03-30T03:15:33.201Z,60.37
2019-03-30T03:18:08.047Z,55.90
2019-03-30T03:20:42.396Z,55.27
2019-03-30T03:23:16.713Z,56.43
2019-03-30T03:25:51.307Z,51.10
2019-03-30T03:28:25.651Z,54.60
2019-03-30T03:31:00.217Z,53.83
2019-03-30T03:33:34.465Z,47.73
2019-03-30T03:36:08.883Z,51.10
2019-03-30T03:38:43.162Z,55.67
2019-03-30T03:41:17.727Z,50.47
2019-03-30T03:43:52.015Z,60.27
2019-03-30T03:46:26.296Z,61.37
2019-03-30T03:49:00.529Z,63.23
2019-03-30T03:51:35.360Z,69.73
2019-03-30T03:54:10.357Z,67.83
2019-03-30T03:56:47.751Z,65.03
2019-03-30T03:59:25.293Z,60.40
2019-03-30T04:02:03.048Z,67.77
2019-03-30T04:04:39.320Z,62.03
2019-03-30T04:07:14.452Z,49.83
2019-03-30T04:09:51.791Z,44.77
2019-03-30T04:12:27.153Z,50.47
2019-03-30T04:15:03.299Z,36.73
2019-03-30T04:17:37.747Z,44.60
2019-03-30T04:20:14.978Z,47.67
2019-03-30T04:22:49.279Z,48.63
2019-03-30T04:25:23.870Z,41.63
2019-03-30T04:27:58.142Z,46.97
2019-03-30T04:30:32.982Z,48.37
2019-03-30T04:33:07.247Z,39.30
2019-03-30T04:35:42.138Z,30.33
2019-03-30T04:38:16.412Z,31.43
2019-03-30T04:40:51.053Z,32.27
2019-03-30T04:43:25.297Z,40.13
2019-03-30T04:45:59.847Z,77.43
2019-03-30T04:48:34.119Z,79.47
2019-03-30T04:51:08.349Z,86.87
2019-03-30T04:53:42.637Z,75.63
2019-03-30T04:56:16.871Z,59.40
2019-03-30T04:58:51.162Z,57.70
2019-03-30T05:01:25.807Z,56.60
2019-03-30T05:04:00.095Z,57.60
2019-03-30T05:06:34.408Z,54.47
2019-03-30T05:09:08.772Z,53.10
2019-03-30T05:11:43.017Z,64.20
2019-03-30T05:14:17.561Z,51.30
2019-03-30T05:16:52.060Z,46.77
2019-03-30T05:19:27.290Z,44.50
2019-03-30T05:22:12.671Z,48.37
2019-03-30T05:24:37.543Z,59.93
2019-03-30T05:27:11.785Z,62.37
2019-03-30T05:29:46.327Z,58.43
2019-03-30T05:32:21.617Z,47.13
2019-03-30T05:34:56.249Z,59.53
2019-03-30T05:37:30.484Z,60.43
2019-03-30T05:40:05.580Z,64.47
2019-03-30T05:42:39.809Z,57.53
2019-03-30T05:45:14.241Z,42.73
2019-03-30T05:47:48.477Z,46.20
2019-03-30T05:50:22.729Z,63.80
2019-03-30T05:52:56.969Z,54.17
2019-03-30T05:55:31.348Z,49.00
2019-03-30T05:58:05.947Z,52.33
2019-03-30T06:00:40.233Z,40.90
2019-03-30T06:03:14.471Z,67.17
2019-03-30T06:05:48.730Z,83.60
2019-03-30T06:08:22.985Z,81.07
2019-03-30T06:10:57.331Z,73.20
2019-03-30T06:13:31.518Z,85.03
2019-03-30T06:16:05.789Z,88.07
2019-03-30T06:18:40.025Z,80.83
2019-03-30T06:21:14.328Z,85.47
2019-03-30T06:23:48.839Z,71.97
2019-03-30T06:26:23.193Z,78.10
2019-03-30T06:28:58.065Z,75.73
2019-03-30T06:31:32.434Z,63.70
2019-03-30T06:34:06.684Z,53.63
2019-03-30T06:36:40.948Z,50.97
2019-03-30T06:39:15.187Z,50.57
2019-03-30T06:41:49.770Z,46.30
2019-03-30T06:44:24.295Z,51.83
2019-03-30T06:46:58.570Z,64.43
2019-03-30T06:49:33.093Z,51.17
2019-03-30T06:52:07.356Z,75.10
2019-03-30T06:54:41.585Z,67.83
2019-03-30T06:57:16.225Z,69.80
2019-03-30T06:59:50.452Z,67.10
2019-03-30T07:02:25.493Z,62.43
2019-03-30T07:04:59.808Z,50.50
2019-03-30T07:07:35.086Z,53.50
2019-03-30T07:10:09.848Z,46.53
2019-03-30T07:12:44.120Z,53.50
2019-03-30T07:15:18.357Z,50.03
2019-03-30T07:17:54.430Z,48.37
2019-03-30T07:20:29.892Z,49.00
2019-03-30T07:23:11.639Z,45.60
2019-03-30T07:25:40.134Z,47.40
2019-03-30T07:28:14.415Z,39.20
2019-03-30T07:30:48.962Z,40.30
2019-03-30T07:33:23.349Z,37.30
2019-03-30T07:35:57.910Z,41.80
2019-03-30T07:38:32.192Z,32.77
2019-03-30T07:41:06.426Z,35.43
2019-03-30T07:43:40.723Z,39.30
2019-03-30T07:46:14.950Z,36.20
2019-03-30T07:48:49.233Z,36.77
2019-03-30T07:51:23.644Z,32.77
2019-03-30T07:53:58.286Z,35.50
2019-03-30T07:56:32.874Z,34.23
2019-03-30T07:59:07.150Z,35.00
2019-03-30T08:01:41.702Z,34.23
2019-03-30T08:04:16.604Z,30.43
2019-03-30T08:06:51.164Z,31.57
2019-03-30T08:09:25.449Z,38.07
2019-03-30T08:11:59.694Z,28.07
2019-03-30T08:14:33.970Z,27.53
2019-03-30T08:17:08.265Z,29.17
2019-03-30T08:19:42.557Z,25.93
2019-03-30T08:22:17.072Z,24.70
2019-03-30T08:24:51.351Z,23.67
2019-03-30T08:27:25.590Z,24.30
2019-03-30T08:29:59.862Z,25.07
2019-03-30T08:32:34.118Z,21.67
2019-03-30T08:35:08.718Z,25.33
2019-03-30T08:37:43.382Z,23.17
2019-03-30T08:40:17.904Z,25.23
2019-03-30T08:42:52.454Z,25.43
2019-03-30T08:45:26.759Z,25.53
2019-03-30T08:48:01.101Z,25.30
2019-03-30T08:50:35.387Z,21.53
2019-03-30T08:53:09.626Z,24.87
2019-03-30T08:55:43.974Z,21.57
2019-03-30T08:58:18.225Z,20.13
2019-03-30T09:00:52.527Z,18.00
2019-03-30T09:03:26.779Z,20.63
2019-03-30T09:06:01.067Z,20.43
2019-03-30T09:08:35.316Z,20.07
2019-03-30T09:11:09.705Z,18.80
2019-03-30T09:13:44.240Z,19.03
2019-03-30T09:16:18.526Z,21.33
2019-03-30T09:18:52.783Z,19.57
2019-03-30T09:21:27.056Z,19.73
2019-03-30T09:24:09.470Z,19.57
2019-03-30T09:26:37.627Z,19.37
2019-03-30T09:29:11.922Z,19.17
2019-03-30T09:31:46.207Z,18.47
2019-03-30T09:34:20.458Z,19.20
2019-03-30T09:36:55.146Z,17.17
2019-03-30T09:39:30.533Z,18.33
2019-03-30T09:42:04.911Z,17.53
2019-03-30T09:44:39.168Z,19.37
2019-03-30T09:47:13.456Z,18.10
2019-03-30T09:49:47.702Z,19.97
2019-03-30T09:52:22.270Z,17.27
2019-03-30T09:54:56.527Z,19.80
2019-03-30T09:57:30.839Z,20.03
2019-03-30T10:00:05.851Z,24.30
2019-03-30T10:02:40.120Z,21.57
2019-03-30T10:05:14.611Z,21.60
2019-03-30T10:07:48.930Z,22.50
2019-03-30T10:10:23.246Z,22.00
2019-03-30T10:12:57.532Z,21.10
2019-03-30T10:15:31.776Z,23.47
2019-03-30T10:18:06.813Z,21.87
2019-03-30T10:20:41.059Z,21.27
2019-03-30T10:23:15.430Z,23.90
2019-03-30T10:25:49.959Z,22.17
2019-03-30T10:28:24.258Z,23.83
2019-03-30T10:30:58.747Z,23.30
2019-03-30T10:33:33.048Z,21.97
2019-03-30T10:36:07.300Z,23.30
2019-03-30T10:38:41.855Z,23.00
2019-03-30T10:41:18.215Z,22.63
2019-03-30T10:43:52.493Z,21.37
2019-03-30T10:46:26.741Z,20.37
2019-03-30T10:49:01.408Z,20.67
2019-03-30T10:51:35.670Z,23.97
2019-03-30T10:54:09.954Z,21.80
2019-03-30T10:56:44.283Z,21.17
2019-03-30T10:59:18.573Z,22.10
2019-03-30T11:01:52.835Z,20.97
2019-03-30T11:04:27.145Z,22.30
2019-03-30T11:07:01.426Z,23.00
2019-03-30T11:09:35.689Z,23.23
2019-03-30T11:12:09.947Z,23.87
2019-03-30T11:14:44.253Z,22.77
2019-03-30T11:17:19.477Z,24.30
2019-03-30T11:19:53.890Z,21.03
2019-03-30T11:22:28.138Z,22.53
2019-03-30T11:25:07.643Z,19.97
2019-03-30T11:27:38.496Z,20.00
2019-03-30T11:30:13.042Z,20.30
2019-03-30T11:32:47.290Z,20.50
2019-03-30T11:35:21.645Z,21.10
2019-03-30T11:37:55.898Z,19.37
2019-03-30T11:40:30.246Z,19.17
2019-03-30T11:43:04.618Z,19.53
2019-03-30T11:45:38.906Z,19.30
2019-03-30T11:48:13.152Z,19.00
2019-03-30T11:50:47.521Z,17.43
2019-03-30T11:53:21.763Z,17.70
2019-03-30T11:55:56.040Z,19.27
2019-03-30T11:58:30.284Z,19.53
2019-03-30T12:01:04.837Z,17.60
2019-03-30T12:03:39.091Z,18.00
2019-03-30T12:06:14.429Z,18.27
2019-03-30T12:08:48.682Z,15.97
2019-03-30T12:11:24.141Z,18.00
2019-03-30T12:13:58.730Z,18.50
2019-03-30T12:16:33.006Z,19.03
2019-03-30T12:19:07.254Z,19.27
2019-03-30T12:21:41.564Z,21.33
2019-03-30T12:24:15.838Z,19.10
2019-03-30T12:26:50.100Z,15.90
2019-03-30T12:29:24.363Z,18.37
2019-03-30T12:31:58.635Z,17.80
2019-03-30T12:34:32.871Z,19.60
2019-03-30T12:37:07.155Z,17.67
2019-03-30T12:39:41.721Z,17.90
2019-03-30T12:42:15.990Z,19.00
2019-03-30T12:44:50.268Z,17.53
2019-03-30T12:47:25.081Z,16.27
2019-03-30T12:49:59.337Z,16.93
2019-03-30T12:52:33.640Z,15.47
2019-03-30T12:55:08.238Z,18.30
2019-03-30T12:57:42.588Z,17.93
2019-03-30T13:00:17.100Z,17.93
2019-03-30T13:02:51.421Z,19.00
2019-03-30T13:05:26.275Z,17.80
2019-03-30T13:08:00.827Z,19.33
2019-03-30T13:10:35.413Z,15.63
2019-03-30T13:13:09.810Z,18.40
2019-03-30T13:15:44.052Z,18.37
2019-03-30T13:18:18.324Z,19.80
2019-03-30T13:20:52.838Z,22.90
2019-03-30T13:23:27.152Z,22.33
2019-03-30T13:26:04.035Z,24.80
2019-03-30T13:28:37.431Z,22.07
2019-03-30T13:31:12.233Z,21.73
2019-03-30T13:33:47.162Z,23.57
2019-03-30T13:36:37.946Z,25.40
2019-03-30T13:39:12.307Z,22.20
2019-03-30T13:41:46.646Z,19.80
2019-03-30T13:44:20.927Z,20.93
2019-03-30T13:46:56.177Z,21.80
2019-03-30T13:49:30.499Z,21.93
2019-03-30T13:52:05.103Z,21.33
2019-03-30T13:54:39.388Z,23.53
2019-03-30T13:57:13.640Z,26.33
2019-03-30T13:59:47.944Z,28.33
2019-03-30T14:02:22.528Z,32.07
2019-03-30T14:04:56.822Z,31.83
2019-03-30T14:07:31.063Z,31.73
2019-03-30T14:10:06.734Z,28.87
2019-03-30T14:12:41.363Z,35.63
2019-03-30T14:15:15.661Z,34.37
2019-03-30T14:17:50.157Z,34.03
2019-03-30T14:20:24.443Z,38.77
2019-03-30T14:22:58.699Z,46.37
2019-03-30T14:25:32.992Z,47.47
2019-03-30T14:28:07.255Z,50.43
2019-03-30T14:30:41.575Z,51.47
2019-03-30T14:33:16.116Z,51.13
2019-03-30T14:35:50.407Z,48.10
2019-03-30T14:38:24.653Z,57.80
2019-03-30T14:40:58.960Z,58.03
2019-03-30T14:43:33.204Z,52.00
2019-03-30T14:46:07.665Z,51.07
2019-03-30T14:48:41.931Z,55.13
2019-03-30T14:51:16.213Z,51.17
2019-03-30T14:53:50.458Z,53.07
2019-03-30T14:56:24.744Z,59.00
2019-03-30T14:59:09.998Z,60.80
2019-03-30T15:01:35.385Z,63.70
2019-03-30T15:04:09.633Z,58.10
2019-03-30T15:06:43.939Z,65.07
2019-03-30T15:09:18.191Z,67.27
2019-03-30T15:11:52.514Z,68.23
2019-03-30T15:14:26.795Z,63.53
2019-03-30T15:17:01.083Z,67.77
2019-03-30T15:19:35.330Z,69.93
2019-03-30T15:22:09.939Z,73.77
2019-03-30T15:24:44.200Z,63.40
2019-03-30T15:27:18.497Z,64.93
2019-03-30T15:29:52.753Z,70.10
2019-03-30T15:32:27.069Z,70.97
2019-03-30T15:35:01.391Z,69.23
2019-03-30T15:37:35.670Z,68.50
2019-03-30T15:40:10.500Z,71.43
2019-03-30T15:42:45.061Z,74.07
2019-03-30T15:45:19.310Z,75.03
2019-03-30T15:47:53.590Z,77.17
2019-03-30T15:50:27.921Z,78.83
2019-03-30T15:53:02.451Z,78.03
2019-03-30T15:55:36.771Z,77.97
2019-03-30T15:58:11.153Z,69.90
2019-03-30T16:00:45.406Z,79.83
2019-03-30T16:03:20.033Z,84.93
2019-03-30T16:05:54.282Z,80.17
2019-03-30T16:08:28.959Z,72.37
2019-03-30T16:11:03.209Z,72.73
2019-03-30T16:13:37.482Z,70.43
2019-03-30T16:16:11.725Z,66.07
2019-03-30T16:18:46.002Z,66.60
2019-03-30T16:21:20.247Z,63.33
2019-03-30T16:23:54.531Z,61.00
2019-03-30T16:26:41.280Z,61.77
2019-03-30T16:29:05.778Z,62.10
2019-03-30T16:31:40.102Z,61.40
2019-03-30T16:34:14.387Z,58.43
2019-03-30T16:36:48.650Z,54.50
2019-03-30T16:39:22.926Z,61.33
2019-03-30T16:41:57.510Z,54.80
2019-03-30T16:44:32.086Z,59.90
2019-03-30T16:47:06.417Z,56.20
2019-03-30T16:49:40.774Z,55.50
2019-03-30T16:52:15.695Z,55.23
2019-03-30T16:54:49.975Z,53.07
2019-03-30T16:57:24.219Z,58.60
2019-03-30T16:59:58.590Z,54.80
2019-03-30T17:02:32.831Z,47.57
2019-03-30T17:05:07.907Z,60.17
2019-03-30T17:07:42.160Z,51.30
2019-03-30T17:10:16.583Z,54.77
2019-03-30T17:12:50.819Z,45.63
2019-03-30T17:15:25.084Z,50.07
2019-03-30T17:17:59.336Z,46.10
2019-03-30T17:20:33.604Z,44.23
2019-03-30T17:23:07.846Z,48.83
2019-03-30T17:25:42.120Z,44.87
2019-03-30T17:28:16.615Z,45.40
2019-03-30T17:30:50.931Z,44.20
2019-03-30T17:33:25.262Z,44.93
2019-03-30T17:35:59.554Z,45.53
2019-03-30T17:38:33.795Z,50.57
2019-03-30T17:41:08.181Z,44.57
2019-03-30T17:43:42.430Z,50.47
2019-03-30T17:46:17.026Z,49.80
2019-03-30T17:48:51.270Z,55.17
2019-03-30T17:51:25.622Z,49.70
2019-03-30T17:53:59.974Z,54.80
2019-03-30T17:56:34.243Z,58.93
2019-03-30T17:59:08.490Z,61.80
2019-03-30T18:01:43.069Z,57.63
2019-03-30T18:04:17.315Z,58.67
2019-03-30T18:06:51.615Z,61.53
2019-03-30T18:09:26.467Z,57.97
2019-03-30T18:12:00.755Z,62.90
2019-03-30T18:14:34.994Z,64.90
2019-03-30T18:17:09.374Z,62.23
2019-03-30T18:19:43.621Z,63.07
2019-03-30T18:22:17.898Z,60.20
2019-03-30T18:24:52.142Z,69.90
2019-03-30T18:27:26.481Z,59.53
2019-03-30T18:30:00.746Z,65.13
2019-03-30T18:32:35.346Z,55.77
2019-03-30T18:35:10.682Z,58.23
2019-03-30T18:37:45.225Z,53.87
2019-03-30T18:40:29.391Z,62.73
2019-03-30T18:43:04.350Z,55.47
2019-03-30T18:45:38.925Z,53.50
2019-03-30T18:48:14.728Z,59.13
2019-03-30T18:50:49.222Z,55.90
2019-03-30T18:53:23.507Z,58.10
2019-03-30T18:55:58.205Z,51.10
2019-03-30T18:58:41.444Z,56.40
2019-03-30T19:01:08.851Z,51.80
2019-03-30T19:03:43.134Z,52.70
2019-03-30T19:06:17.382Z,51.07
2019-03-30T19:08:51.809Z,59.40
2019-03-30T19:11:26.059Z,57.40
2019-03-30T19:14:00.358Z,52.87
2019-03-30T19:16:34.619Z,56.87
2019-03-30T19:19:09.219Z,60.87
2019-03-30T19:21:43.460Z,70.27
2019-03-30T19:24:18.003Z,65.53
2019-03-30T19:26:52.250Z,81.83
2019-03-30T19:29:26.879Z,70.70
2019-03-30T19:32:01.120Z,81.50
2019-03-30T19:34:35.480Z,75.07
2019-03-30T19:37:09.906Z,69.93
2019-03-30T19:39:44.525Z,78.20
2019-03-30T19:42:19.346Z,72.20
2019-03-30T19:44:53.735Z,67.93
2019-03-30T19:47:28.006Z,65.97
2019-03-30T19:50:02.379Z,59.13
2019-03-30T19:52:39.979Z,67.97
2019-03-30T19:55:12.610Z,57.50
2019-03-30T19:57:46.933Z,59.50
2019-03-30T20:00:21.639Z,64.77
2019-03-30T20:02:56.145Z,75.63
2019-03-30T20:05:30.705Z,67.47
2019-03-30T20:08:12.007Z,70.30
2019-03-30T20:10:41.433Z,73.57
2019-03-30T20:13:15.998Z,69.90
2019-03-30T20:15:50.533Z,86.80
2019-03-30T20:18:24.774Z,76.87
2019-03-30T20:20:59.130Z,73.77
2019-03-30T20:23:33.361Z,68.03
2019-03-30T20:26:07.802Z,65.97
2019-03-30T20:28:42.041Z,66.10
2019-03-30T20:31:16.726Z,69.80
2019-03-30T20:33:50.959Z,80.40
2019-03-30T20:36:25.225Z,61.37
2019-03-30T20:38:59.468Z,61.87
2019-03-30T20:41:34.018Z,71.30
2019-03-30T20:44:08.590Z,78.80
2019-03-30T20:46:43.828Z,65.73
2019-03-30T20:49:18.262Z,72.57
2019-03-30T20:51:52.545Z,68.07
2019-03-30T20:54:26.832Z,66.83
2019-03-30T20:57:01.126Z,60.83
2019-03-30T20:59:40.132Z,77.13
2019-03-30T21:02:12.807Z,74.87
2019-03-30T21:04:47.034Z,70.17
2019-03-30T21:07:21.345Z,69.90
2019-03-30T21:09:55.577Z,79.37
2019-03-30T21:12:30.166Z,80.50
2019-03-30T21:15:04.989Z,85.37
2019-03-30T21:17:39.303Z,82.80
2019-03-30T21:20:14.359Z,82.33
2019-03-30T21:22:48.753Z,78.47
2019-03-30T21:25:23.005Z,84.17
2019-03-30T21:27:57.352Z,81.57
2019-03-30T21:30:31.582Z,78.93
2019-03-30T21:33:05.851Z,91.03
2019-03-30T21:35:40.141Z,88.73
2019-03-30T21:38:14.423Z,97.13
2019-03-30T21:40:48.833Z,88.47
2019-03-30T21:43:23.124Z,94.40
2019-03-30T21:45:57.700Z,85.47
2019-03-30T21:48:32.001Z,89.67
2019-03-30T21:51:06.250Z,86.37
2019-03-30T21:53:41.059Z,78.70
2019-03-30T21:56:15.544Z,82.77
2019-03-30T21:58:49.838Z,80.83
2019-03-30T22:01:24.129Z,83.70
2019-03-30T22:03:58.418Z,112.10
2019-03-30T22:06:33.026Z,78.63
2019-03-30T22:09:08.046Z,88.90
2019-03-30T22:11:42.575Z,79.93
2019-03-30T22:14:17.105Z,79.40
2019-03-30T22:16:51.342Z,79.33
2019-03-30T22:19:25.606Z,89.90
2019-03-30T22:21:59.851Z,95.87
2019-03-30T22:24:34.205Z,85.40
2019-03-30T22:27:08.446Z,98.27
2019-03-30T22:29:42.726Z,84.60
2019-03-30T22:32:16.989Z,91.83
2019-03-30T22:34:51.256Z,85.30
2019-03-30T22:37:25.503Z,90.27
2019-03-30T22:39:59.785Z,70.43
2019-03-30T22:42:34.100Z,65.50
2019-03-30T22:45:08.847Z,74.67
2019-03-30T22:47:43.074Z,76.03
2019-03-30T22:50:17.366Z,76.93
2019-03-30T22:52:51.610Z,77.87
2019-03-30T22:55:25.900Z,74.83
2019-03-30T22:58:00.141Z,78.00
2019-03-30T23:00:47.151Z,72.00
2019-03-30T23:03:21.455Z,85.53
2019-03-30T23:05:55.726Z,77.97
2019-03-30T23:08:30.344Z,89.90
2019-03-30T23:11:04.761Z,93.43
2019-03-30T23:13:38.997Z,81.07
2019-03-30T23:16:13.257Z,78.80
2019-03-30T23:18:47.498Z,87.10
2019-03-30T23:21:21.822Z,83.70
2019-03-30T23:23:56.011Z,79.10
2019-03-30T23:26:30.287Z,81.93
2019-03-30T23:29:04.896Z,93.57
2019-03-30T23:31:39.756Z,98.40
2019-03-30T23:34:13.992Z,99.77
2019-03-30T23:36:48.264Z,87.63
2019-03-30T23:39:22.505Z,83.83
2019-03-30T23:41:57.068Z,79.73
2019-03-30T23:44:31.650Z,90.83
2019-03-30T23:47:05.933Z,95.87
2019-03-30T23:49:40.170Z,79.53
2019-03-30T23:52:14.824Z,79.07
2019-03-30T23:54:49.061Z,75.40
2019-03-30T23:57:23.353Z,73.07
2019-03-30T23:59:57.945Z,74.37
